sensor_id;sensor_type;location;lat;lon;timestamp;temperature;humidity
72277;SHT30;61204;49.980;8.358;2023-08-08T00:02:16;15.51;72.07
72277;SHT30;61204;49.980;8.358;2023-08-08T00:04:41;15.62;71.35
72277;SHT30;61204;49.980;8.358;2023-08-08T00:07:07;15.61;71.47
72277;SHT30;61204;49.980;8.358;2023-08-08T00:09:33;15.59;71.62
72277;SHT30;61204;49.980;8.358;2023-08-08T00:11:59;15.55;71.55
72277;SHT30;61204;49.980;8.358;2023-08-08T00:14:25;15.51;71.82
72277;SHT30;61204;49.980;8.358;2023-08-08T00:16:50;15.48;71.76
72277;SHT30;61204;49.980;8.358;2023-08-08T00:19:16;15.45;72.09
72277;SHT30;61204;49.980;8.358;2023-08-08T00:21:41;15.41;72.61
72277;SHT30;61204;49.980;8.358;2023-08-08T00:24:07;15.37;72.52
72277;SHT30;61204;49.980;8.358;2023-08-08T00:26:33;15.35;72.78
72277;SHT30;61204;49.980;8.358;2023-08-08T00:28:58;15.30;73.23
72277;SHT30;61204;49.980;8.358;2023-08-08T00:31:24;15.31;73.23
72277;SHT30;61204;49.980;8.358;2023-08-08T00:33:49;15.28;73.25
72277;SHT30;61204;49.980;8.358;2023-08-08T00:36:15;15.31;73.08
72277;SHT30;61204;49.980;8.358;2023-08-08T00:38:42;15.35;72.93
72277;SHT30;61204;49.980;8.358;2023-08-08T00:41:08;15.31;73.16
72277;SHT30;61204;49.980;8.358;2023-08-08T00:43:34;15.31;73.14
72277;SHT30;61204;49.980;8.358;2023-08-08T00:45:59;15.26;73.56
72277;SHT30;61204;49.980;8.358;2023-08-08T00:48:25;15.35;73.19
72277;SHT30;61204;49.980;8.358;2023-08-08T00:50:52;15.41;73.00
72277;SHT30;61204;49.980;8.358;2023-08-08T00:53:19;15.42;72.65
72277;SHT30;61204;49.980;8.358;2023-08-08T00:55:45;15.41;73.08
72277;SHT30;61204;49.980;8.358;2023-08-08T00:58:12;15.39;72.97
72277;SHT30;61204;49.980;8.358;2023-08-08T01:00:39;15.31;73.33
72277;SHT30;61204;49.980;8.358;2023-08-08T01:03:07;15.30;73.39
72277;SHT30;61204;49.980;8.358;2023-08-08T01:05:44;15.32;73.41
72277;SHT30;61204;49.980;8.358;2023-08-08T01:08:20;15.31;73.69
72277;SHT30;61204;49.980;8.358;2023-08-08T01:10:52;15.30;73.71
72277;SHT30;61204;49.980;8.358;2023-08-08T01:13:24;15.27;73.63
72277;SHT30;61204;49.980;8.358;2023-08-08T01:15:57;15.28;73.62
72277;SHT30;61204;49.980;8.358;2023-08-08T01:18:26;15.35;73.05
72277;SHT30;61204;49.980;8.358;2023-08-08T01:20:53;15.39;72.80
72277;SHT30;61204;49.980;8.358;2023-08-08T01:23:44;15.34;73.43
72277;SHT30;61204;49.980;8.358;2023-08-08T01:26:17;15.32;73.54
72277;SHT30;61204;49.980;8.358;2023-08-08T01:28:43;15.30;73.61
72277;SHT30;61204;49.980;8.358;2023-08-08T01:31:09;15.31;73.56
72277;SHT30;61204;49.980;8.358;2023-08-08T01:33:37;15.31;73.72
72277;SHT30;61204;49.980;8.358;2023-08-08T01:36:28;15.30;74.05
72277;SHT30;61204;49.980;8.358;2023-08-08T01:39:02;15.31;73.51
72277;SHT30;61204;49.980;8.358;2023-08-08T01:41:37;15.34;73.55
72277;SHT30;61204;49.980;8.358;2023-08-08T01:44:05;15.32;73.61
72277;SHT30;61204;49.980;8.358;2023-08-08T01:46:33;15.38;72.95
72277;SHT30;61204;49.980;8.358;2023-08-08T01:48:59;15.41;72.86
72277;SHT30;61204;49.980;8.358;2023-08-08T01:51:26;15.32;73.33
72277;SHT30;61204;49.980;8.358;2023-08-08T01:53:53;15.26;73.16
72277;SHT30;61204;49.980;8.358;2023-08-08T01:56:18;15.30;73.27
72277;SHT30;61204;49.980;8.358;2023-08-08T01:58:44;15.30;73.27
72277;SHT30;61204;49.980;8.358;2023-08-08T02:01:09;15.26;73.22
72277;SHT30;61204;49.980;8.358;2023-08-08T02:03:35;15.11;73.81
72277;SHT30;61204;49.980;8.358;2023-08-08T02:06:03;15.08;73.86
72277;SHT30;61204;49.980;8.358;2023-08-08T02:08:28;15.04;74.05
72277;SHT30;61204;49.980;8.358;2023-08-08T02:10:54;14.82;74.84
72277;SHT30;61204;49.980;8.358;2023-08-08T02:13:20;14.69;75.26
72277;SHT30;61204;49.980;8.358;2023-08-08T02:15:45;14.54;75.96
72277;SHT30;61204;49.980;8.358;2023-08-08T02:18:11;14.34;76.72
72277;SHT30;61204;49.980;8.358;2023-08-08T02:20:37;14.20;77.50
72277;SHT30;61204;49.980;8.358;2023-08-08T02:23:03;14.01;78.49
72277;SHT30;61204;49.980;8.358;2023-08-08T02:25:28;14.09;77.90
72277;SHT30;61204;49.980;8.358;2023-08-08T02:27:56;14.09;77.94
72277;SHT30;61204;49.980;8.358;2023-08-08T02:30:22;13.97;78.44
72277;SHT30;61204;49.980;8.358;2023-08-08T02:32:50;13.89;78.72
72277;SHT30;61204;49.980;8.358;2023-08-08T02:35:16;13.77;79.00
72277;SHT30;61204;49.980;8.358;2023-08-08T02:37:44;13.61;79.86
72277;SHT30;61204;49.980;8.358;2023-08-08T02:40:10;13.27;80.66
72277;SHT30;61204;49.980;8.358;2023-08-08T02:42:36;13.07;81.58
72277;SHT30;61204;49.980;8.358;2023-08-08T02:45:02;12.82;82.48
72277;SHT30;61204;49.980;8.358;2023-08-08T02:47:28;12.59;83.70
72277;SHT30;61204;49.980;8.358;2023-08-08T02:49:53;12.35;84.40
72277;SHT30;61204;49.980;8.358;2023-08-08T02:52:19;12.21;85.21
72277;SHT30;61204;49.980;8.358;2023-08-08T02:54:44;12.05;86.05
72277;SHT30;61204;49.980;8.358;2023-08-08T02:57:11;11.93;86.73
72277;SHT30;61204;49.980;8.358;2023-08-08T02:59:37;11.82;87.54
72277;SHT30;61204;49.980;8.358;2023-08-08T03:02:03;11.75;87.86
72277;SHT30;61204;49.980;8.358;2023-08-08T03:04:29;11.67;88.39
72277;SHT30;61204;49.980;8.358;2023-08-08T03:06:57;11.66;88.49
72277;SHT30;61204;49.980;8.358;2023-08-08T03:09:30;11.58;88.72
72277;SHT30;61204;49.980;8.358;2023-08-08T03:11:56;11.58;88.84
72277;SHT30;61204;49.980;8.358;2023-08-08T03:14:21;11.46;89.11
72277;SHT30;61204;49.980;8.358;2023-08-08T03:16:47;11.35;89.50
72277;SHT30;61204;49.980;8.358;2023-08-08T03:19:12;11.32;89.71
72277;SHT30;61204;49.980;8.358;2023-08-08T03:21:38;11.25;90.05
72277;SHT30;61204;49.980;8.358;2023-08-08T03:24:04;11.20;90.23
72277;SHT30;61204;49.980;8.358;2023-08-08T03:26:30;11.20;90.87
72277;SHT30;61204;49.980;8.358;2023-08-08T03:28:55;11.13;90.83
72277;SHT30;61204;49.980;8.358;2023-08-08T03:31:21;11.11;91.00
72277;SHT30;61204;49.980;8.358;2023-08-08T03:33:47;10.99;91.28
72277;SHT30;61204;49.980;8.358;2023-08-08T03:36:13;11.07;91.35
72277;SHT30;61204;49.980;8.358;2023-08-08T03:38:40;11.01;91.38
72277;SHT30;61204;49.980;8.358;2023-08-08T03:41:09;10.94;91.60
72277;SHT30;61204;49.980;8.358;2023-08-08T03:43:35;10.81;91.84
72277;SHT30;61204;49.980;8.358;2023-08-08T03:46:00;10.83;92.06
72277;SHT30;61204;49.980;8.358;2023-08-08T03:48:26;10.75;92.49
72277;SHT30;61204;49.980;8.358;2023-08-08T03:50:52;10.67;92.44
72277;SHT30;61204;49.980;8.358;2023-08-08T03:53:17;10.60;93.05
72277;SHT30;61204;49.980;8.358;2023-08-08T03:55:43;10.53;93.01
72277;SHT30;61204;49.980;8.358;2023-08-08T03:58:08;10.63;93.15
72277;SHT30;61204;49.980;8.358;2023-08-08T04:00:34;10.59;93.41
72277;SHT30;61204;49.980;8.358;2023-08-08T04:03:00;10.92;93.68
72277;SHT30;61204;49.980;8.358;2023-08-08T04:05:27;10.89;92.88
72277;SHT30;61204;49.980;8.358;2023-08-08T04:07:53;11.18;92.45
72277;SHT30;61204;49.980;8.358;2023-08-08T04:10:18;11.38;91.36
72277;SHT30;61204;49.980;8.358;2023-08-08T04:12:44;11.55;90.07
72277;SHT30;61204;49.980;8.358;2023-08-08T04:15:09;11.39;90.03
72277;SHT30;61204;49.980;8.358;2023-08-08T04:17:35;11.24;90.37
72277;SHT30;61204;49.980;8.358;2023-08-08T04:20:02;11.01;90.81
72277;SHT30;61204;49.980;8.358;2023-08-08T04:22:30;10.97;91.70
72277;SHT30;61204;49.980;8.358;2023-08-08T04:24:56;11.20;91.73
72277;SHT30;61204;49.980;8.358;2023-08-08T04:27:22;11.49;90.43
72277;SHT30;61204;49.980;8.358;2023-08-08T04:29:47;11.75;89.57
72277;SHT30;61204;49.980;8.358;2023-08-08T04:32:13;11.94;88.75
72277;SHT30;61204;49.980;8.358;2023-08-08T04:34:38;12.16;87.82
72277;SHT30;61204;49.980;8.358;2023-08-08T04:37:04;12.42;86.31
72277;SHT30;61204;49.980;8.358;2023-08-08T04:39:29;12.87;84.62
72277;SHT30;61204;49.980;8.358;2023-08-08T04:41:55;13.31;82.90
72277;SHT30;61204;49.980;8.358;2023-08-08T04:44:23;13.79;81.31
72277;SHT30;61204;49.980;8.358;2023-08-08T04:46:50;14.29;79.26
72277;SHT30;61204;49.980;8.358;2023-08-08T04:49:18;14.76;77.61
72277;SHT30;61204;49.980;8.358;2023-08-08T04:51:44;14.76;76.12
72277;SHT30;61204;49.980;8.358;2023-08-08T04:54:09;15.04;75.59
72277;SHT30;61204;49.980;8.358;2023-08-08T04:56:35;15.31;74.52
72277;SHT30;61204;49.980;8.358;2023-08-08T04:59:00;15.85;72.94
72277;SHT30;61204;49.980;8.358;2023-08-08T05:01:26;16.08;72.23
72277;SHT30;61204;49.980;8.358;2023-08-08T05:03:52;16.14;71.12
72277;SHT30;61204;49.980;8.358;2023-08-08T05:06:20;16.18;70.49
72277;SHT30;61204;49.980;8.358;2023-08-08T05:08:46;15.73;72.16
72277;SHT30;61204;49.980;8.358;2023-08-08T05:11:11;16.21;71.64
72277;SHT30;61204;49.980;8.358;2023-08-08T05:13:37;16.99;69.45
72277;SHT30;61204;49.980;8.358;2023-08-08T05:16:02;17.25;68.20
72277;SHT30;61204;49.980;8.358;2023-08-08T05:18:31;17.97;66.10
72277;SHT30;61204;49.980;8.358;2023-08-08T05:20:56;18.23;64.65
72277;SHT30;61204;49.980;8.358;2023-08-08T05:23:22;18.24;64.55
72277;SHT30;61204;49.980;8.358;2023-08-08T05:25:48;18.63;64.03
72277;SHT30;61204;49.980;8.358;2023-08-08T05:28:13;18.88;62.86
72277;SHT30;61204;49.980;8.358;2023-08-08T05:30:39;19.07;62.74
72277;SHT30;61204;49.980;8.358;2023-08-08T05:33:04;18.66;62.92
72277;SHT30;61204;49.980;8.358;2023-08-08T05:35:30;19.11;61.86
72277;SHT30;61204;49.980;8.358;2023-08-08T05:37:56;19.11;60.82
72277;SHT30;61204;49.980;8.358;2023-08-08T05:40:21;18.61;62.57
72277;SHT30;61204;49.980;8.358;2023-08-08T05:42:47;19.17;61.21
72277;SHT30;61204;49.980;8.358;2023-08-08T05:45:12;18.88;61.33
72277;SHT30;61204;49.980;8.358;2023-08-08T05:47:38;17.96;63.69
72277;SHT30;61204;49.980;8.358;2023-08-08T05:50:04;17.35;66.08
72277;SHT30;61204;49.980;8.358;2023-08-08T05:52:30;17.61;65.68
72277;SHT30;61204;49.980;8.358;2023-08-08T05:54:56;16.41;68.65
72277;SHT30;61204;49.980;8.358;2023-08-08T05:57:25;16.76;68.31
72277;SHT30;61204;49.980;8.358;2023-08-08T05:59:51;16.71;68.38
72277;SHT30;61204;49.980;8.358;2023-08-08T06:02:17;16.37;69.26
72277;SHT30;61204;49.980;8.358;2023-08-08T06:04:43;16.73;68.58
72277;SHT30;61204;49.980;8.358;2023-08-08T06:07:11;17.41;67.39
72277;SHT30;61204;49.980;8.358;2023-08-08T06:09:37;16.93;67.34
72277;SHT30;61204;49.980;8.358;2023-08-08T06:12:03;16.13;69.67
72277;SHT30;61204;49.980;8.358;2023-08-08T06:14:31;16.52;69.41
72277;SHT30;61204;49.980;8.358;2023-08-08T06:16:56;16.66;68.30
72277;SHT30;61204;49.980;8.358;2023-08-08T06:19:22;17.21;67.39
72277;SHT30;61204;49.980;8.358;2023-08-08T06:21:47;17.62;66.73
72277;SHT30;61204;49.980;8.358;2023-08-08T06:24:14;18.24;64.44
72277;SHT30;61204;49.980;8.358;2023-08-08T06:26:39;17.82;64.73
72277;SHT30;61204;49.980;8.358;2023-08-08T06:29:05;18.08;65.15
72277;SHT30;61204;49.980;8.358;2023-08-08T06:31:31;17.82;65.43
72277;SHT30;61204;49.980;8.358;2023-08-08T06:33:56;17.91;65.44
72277;SHT30;61204;49.980;8.358;2023-08-08T06:36:24;18.62;63.89
72277;SHT30;61204;49.980;8.358;2023-08-08T06:38:52;18.55;62.53
72277;SHT30;61204;49.980;8.358;2023-08-08T06:41:17;18.51;62.14
72277;SHT30;61204;49.980;8.358;2023-08-08T06:43:43;18.25;62.41
72277;SHT30;61204;49.980;8.358;2023-08-08T06:46:09;18.65;61.54
72277;SHT30;61204;49.980;8.358;2023-08-08T06:48:34;18.70;61.63
72277;SHT30;61204;49.980;8.358;2023-08-08T06:51:00;19.00;60.42
72277;SHT30;61204;49.980;8.358;2023-08-08T06:53:25;18.90;60.71
72277;SHT30;61204;49.980;8.358;2023-08-08T06:55:51;18.61;59.91
72277;SHT30;61204;49.980;8.358;2023-08-08T06:58:16;18.07;60.39
72277;SHT30;61204;49.980;8.358;2023-08-08T07:00:45;18.35;61.01
72277;SHT30;61204;49.980;8.358;2023-08-08T07:03:10;18.08;61.05
72277;SHT30;61204;49.980;8.358;2023-08-08T07:05:36;17.58;62.67
72277;SHT30;61204;49.980;8.358;2023-08-08T07:08:03;18.10;60.41
72277;SHT30;61204;49.980;8.358;2023-08-08T07:10:29;18.44;60.57
72277;SHT30;61204;49.980;8.358;2023-08-08T07:12:57;18.72;60.81
72277;SHT30;61204;49.980;8.358;2023-08-08T07:15:23;18.45;60.20
72277;SHT30;61204;49.980;8.358;2023-08-08T07:17:51;18.56;61.11
72277;SHT30;61204;49.980;8.358;2023-08-08T07:20:16;18.75;60.70
72277;SHT30;61204;49.980;8.358;2023-08-08T07:22:43;18.79;58.46
72277;SHT30;61204;49.980;8.358;2023-08-08T07:25:09;17.62;61.39
72277;SHT30;61204;49.980;8.358;2023-08-08T07:27:35;18.06;62.21
72277;SHT30;61204;49.980;8.358;2023-08-08T07:30:00;18.21;61.30
72277;SHT30;61204;49.980;8.358;2023-08-08T07:32:27;18.49;60.11
72277;SHT30;61204;49.980;8.358;2023-08-08T07:34:55;18.23;59.55
72277;SHT30;61204;49.980;8.358;2023-08-08T07:37:21;18.00;60.23
72277;SHT30;61204;49.980;8.358;2023-08-08T07:39:50;18.06;60.58
72277;SHT30;61204;49.980;8.358;2023-08-08T07:42:18;18.24;58.96
72277;SHT30;61204;49.980;8.358;2023-08-08T07:44:44;18.56;59.45
72277;SHT30;61204;49.980;8.358;2023-08-08T07:47:14;18.82;57.77
72277;SHT30;61204;49.980;8.358;2023-08-08T07:49:40;19.13;56.22
72277;SHT30;61204;49.980;8.358;2023-08-08T07:52:07;18.77;57.39
72277;SHT30;61204;49.980;8.358;2023-08-08T07:54:36;18.33;57.20
72277;SHT30;61204;49.980;8.358;2023-08-08T07:57:02;18.31;57.58
72277;SHT30;61204;49.980;8.358;2023-08-08T07:59:27;18.28;58.67
72277;SHT30;61204;49.980;8.358;2023-08-08T08:01:53;18.27;58.81
72277;SHT30;61204;49.980;8.358;2023-08-08T08:04:18;18.53;59.00
72277;SHT30;61204;49.980;8.358;2023-08-08T08:06:46;18.41;57.56
72277;SHT30;61204;49.980;8.358;2023-08-08T08:09:12;18.72;57.76
72277;SHT30;61204;49.980;8.358;2023-08-08T08:11:38;18.58;56.95
72277;SHT30;61204;49.980;8.358;2023-08-08T08:14:03;18.31;58.15
72277;SHT30;61204;49.980;8.358;2023-08-08T08:16:29;18.45;57.95
72277;SHT30;61204;49.980;8.358;2023-08-08T08:18:57;18.51;56.38
72277;SHT30;61204;49.980;8.358;2023-08-08T08:21:25;18.55;57.04
72277;SHT30;61204;49.980;8.358;2023-08-08T08:23:51;18.75;55.61
72277;SHT30;61204;49.980;8.358;2023-08-08T08:26:16;18.95;55.45
72277;SHT30;61204;49.980;8.358;2023-08-08T08:28:42;18.88;55.90
72277;SHT30;61204;49.980;8.358;2023-08-08T08:31:07;19.20;55.75
72277;SHT30;61204;49.980;8.358;2023-08-08T08:33:34;18.86;56.94
72277;SHT30;61204;49.980;8.358;2023-08-08T08:36:00;19.45;55.31
72277;SHT30;61204;49.980;8.358;2023-08-08T08:38:25;19.24;56.01
72277;SHT30;61204;49.980;8.358;2023-08-08T08:40:54;19.14;56.25
72277;SHT30;61204;49.980;8.358;2023-08-08T08:43:21;19.35;56.26
72277;SHT30;61204;49.980;8.358;2023-08-08T08:45:52;19.27;56.66
72277;SHT30;61204;49.980;8.358;2023-08-08T08:48:21;19.41;55.99
72277;SHT30;61204;49.980;8.358;2023-08-08T08:50:48;19.00;56.78
72277;SHT30;61204;49.980;8.358;2023-08-08T08:53:15;19.16;56.82
72277;SHT30;61204;49.980;8.358;2023-08-08T08:55:41;19.54;54.86
72277;SHT30;61204;49.980;8.358;2023-08-08T08:58:08;19.44;55.98
72277;SHT30;61204;49.980;8.358;2023-08-08T09:00:35;19.25;55.69
72277;SHT30;61204;49.980;8.358;2023-08-08T09:03:04;19.42;55.55
72277;SHT30;61204;49.980;8.358;2023-08-08T09:05:31;19.68;55.36
72277;SHT30;61204;49.980;8.358;2023-08-08T09:07:57;19.66;54.96
72277;SHT30;61204;49.980;8.358;2023-08-08T09:10:24;20.17;54.79
72277;SHT30;61204;49.980;8.358;2023-08-08T09:12:52;20.27;53.66
72277;SHT30;61204;49.980;8.358;2023-08-08T09:15:19;19.63;54.86
72277;SHT30;61204;49.980;8.358;2023-08-08T09:17:45;20.14;54.17
72277;SHT30;61204;49.980;8.358;2023-08-08T09:20:13;20.85;53.02
72277;SHT30;61204;49.980;8.358;2023-08-08T09:22:41;21.02;52.68
72277;SHT30;61204;49.980;8.358;2023-08-08T09:25:07;19.97;54.34
72277;SHT30;61204;49.980;8.358;2023-08-08T09:27:34;20.72;53.56
72277;SHT30;61204;49.980;8.358;2023-08-08T09:30:00;20.56;54.02
72277;SHT30;61204;49.980;8.358;2023-08-08T09:32:32;20.27;54.85
72277;SHT30;61204;49.980;8.358;2023-08-08T09:34:58;20.53;53.84
72277;SHT30;61204;49.980;8.358;2023-08-08T09:37:25;20.49;52.43
72277;SHT30;61204;49.980;8.358;2023-08-08T09:40:03;20.37;53.94
72277;SHT30;61204;49.980;8.358;2023-08-08T09:42:31;20.03;55.11
72277;SHT30;61204;49.980;8.358;2023-08-08T09:44:58;19.96;54.92
72277;SHT30;61204;49.980;8.358;2023-08-08T09:47:25;20.10;55.11
72277;SHT30;61204;49.980;8.358;2023-08-08T09:50:03;20.48;54.21
72277;SHT30;61204;49.980;8.358;2023-08-08T09:52:30;20.87;53.35
72277;SHT30;61204;49.980;8.358;2023-08-08T09:54:56;21.07;53.50
72277;SHT30;61204;49.980;8.358;2023-08-08T09:57:24;21.00;54.23
72277;SHT30;61204;49.980;8.358;2023-08-08T09:59:52;20.45;54.52
72277;SHT30;61204;49.980;8.358;2023-08-08T10:02:19;20.45;54.77
72277;SHT30;61204;49.980;8.358;2023-08-08T10:04:47;20.64;54.19
72277;SHT30;61204;49.980;8.358;2023-08-08T10:07:16;20.97;54.97
72277;SHT30;61204;49.980;8.358;2023-08-08T10:09:42;20.76;54.83
72277;SHT30;61204;49.980;8.358;2023-08-08T10:12:08;20.82;54.97
72277;SHT30;61204;49.980;8.358;2023-08-08T10:14:37;21.06;53.95
72277;SHT30;61204;49.980;8.358;2023-08-08T10:17:06;21.49;53.05
72277;SHT30;61204;49.980;8.358;2023-08-08T10:19:33;21.61;52.33
72277;SHT30;61204;49.980;8.358;2023-08-08T10:22:04;21.71;51.41
72277;SHT30;61204;49.980;8.358;2023-08-08T10:24:35;20.75;52.39
72277;SHT30;61204;49.980;8.358;2023-08-08T10:27:03;20.56;53.49
72277;SHT30;61204;49.980;8.358;2023-08-08T10:29:33;21.04;52.49
72277;SHT30;61204;49.980;8.358;2023-08-08T10:32:04;21.04;51.93
72277;SHT30;61204;49.980;8.358;2023-08-08T10:34:42;21.21;52.88
72277;SHT30;61204;49.980;8.358;2023-08-08T10:37:16;21.49;52.09
72277;SHT30;61204;49.980;8.358;2023-08-08T10:42:28;21.65;51.81
72277;SHT30;61204;49.980;8.358;2023-08-08T10:44:59;21.44;52.12
72277;SHT30;61204;49.980;8.358;2023-08-08T10:47:33;21.27;50.48
72277;SHT30;61204;49.980;8.358;2023-08-08T10:50:12;21.37;51.42
72277;SHT30;61204;49.980;8.358;2023-08-08T10:55:32;21.02;50.98
72277;SHT30;61204;49.980;8.358;2023-08-08T11:00:31;21.41;49.34
72277;SHT30;61204;49.980;8.358;2023-08-08T11:02:59;20.87;49.83
72277;SHT30;61204;49.980;8.358;2023-08-08T11:05:29;21.20;50.47
72277;SHT30;61204;49.980;8.358;2023-08-08T11:07:57;21.08;49.70
72277;SHT30;61204;49.980;8.358;2023-08-08T11:10:24;20.99;49.62
72277;SHT30;61204;49.980;8.358;2023-08-08T11:13:06;21.35;50.76
72277;SHT30;61204;49.980;8.358;2023-08-08T11:15:34;20.85;50.23
72277;SHT30;61204;49.980;8.358;2023-08-08T11:18:02;20.93;50.86
72277;SHT30;61204;49.980;8.358;2023-08-08T11:20:34;21.45;50.15
72277;SHT30;61204;49.980;8.358;2023-08-08T11:23:02;21.65;50.10
72277;SHT30;61204;49.980;8.358;2023-08-08T11:25:31;21.30;47.68
72277;SHT30;61204;49.980;8.358;2023-08-08T11:27:58;21.11;48.07
72277;SHT30;61204;49.980;8.358;2023-08-08T11:30:34;20.78;49.02
72277;SHT30;61204;49.980;8.358;2023-08-08T11:33:02;21.44;48.42
72277;SHT30;61204;49.980;8.358;2023-08-08T11:35:29;21.34;48.92
72277;SHT30;61204;49.980;8.358;2023-08-08T11:37:58;21.20;48.98
72277;SHT30;61204;49.980;8.358;2023-08-08T11:40:27;21.19;48.50
72277;SHT30;61204;49.980;8.358;2023-08-08T11:42:55;21.35;46.97
72277;SHT30;61204;49.980;8.358;2023-08-08T11:45:24;21.13;45.85
72277;SHT30;61204;49.980;8.358;2023-08-08T11:47:52;20.95;46.82
72277;SHT30;61204;49.980;8.358;2023-08-08T11:50:21;20.93;47.56
72277;SHT30;61204;49.980;8.358;2023-08-08T11:52:52;21.13;47.48
72277;SHT30;61204;49.980;8.358;2023-08-08T11:55:19;21.58;46.82
72277;SHT30;61204;49.980;8.358;2023-08-08T11:57:48;21.27;47.08
72277;SHT30;61204;49.980;8.358;2023-08-08T12:00:16;21.34;46.92
72277;SHT30;61204;49.980;8.358;2023-08-08T12:02:44;21.41;47.55
72277;SHT30;61204;49.980;8.358;2023-08-08T12:05:13;22.09;46.61
72277;SHT30;61204;49.980;8.358;2023-08-08T12:07:43;21.92;46.50
72277;SHT30;61204;49.980;8.358;2023-08-08T12:10:29;22.21;46.48
72277;SHT30;61204;49.980;8.358;2023-08-08T12:12:56;22.88;45.76
72277;SHT30;61204;49.980;8.358;2023-08-08T12:15:29;22.92;45.28
72277;SHT30;61204;49.980;8.358;2023-08-08T12:17:58;22.89;43.72
72277;SHT30;61204;49.980;8.358;2023-08-08T12:20:30;22.54;44.62
72277;SHT30;61204;49.980;8.358;2023-08-08T12:22:59;22.20;44.92
72277;SHT30;61204;49.980;8.358;2023-08-08T12:25:25;22.30;43.68
72277;SHT30;61204;49.980;8.358;2023-08-08T12:27:54;22.38;44.77
72277;SHT30;61204;49.980;8.358;2023-08-08T12:30:20;22.45;44.17
72277;SHT30;61204;49.980;8.358;2023-08-08T12:32:45;22.23;44.27
72277;SHT30;61204;49.980;8.358;2023-08-08T12:35:13;22.14;44.48
72277;SHT30;61204;49.980;8.358;2023-08-08T12:37:41;21.75;44.99
72277;SHT30;61204;49.980;8.358;2023-08-08T12:40:11;21.72;45.29
72277;SHT30;61204;49.980;8.358;2023-08-08T12:42:37;21.96;45.57
72277;SHT30;61204;49.980;8.358;2023-08-08T12:45:07;21.49;45.77
72277;SHT30;61204;49.980;8.358;2023-08-08T12:47:32;21.61;44.65
72277;SHT30;61204;49.980;8.358;2023-08-08T12:50:02;21.97;44.42
72277;SHT30;61204;49.980;8.358;2023-08-08T12:52:30;21.99;44.31
72277;SHT30;61204;49.980;8.358;2023-08-08T12:54:56;21.81;43.87
72277;SHT30;61204;49.980;8.358;2023-08-08T12:57:25;21.57;43.85
72277;SHT30;61204;49.980;8.358;2023-08-08T12:59:51;21.59;44.69
72277;SHT30;61204;49.980;8.358;2023-08-08T13:02:16;21.74;44.28
72277;SHT30;61204;49.980;8.358;2023-08-08T13:04:42;21.99;44.60
72277;SHT30;61204;49.980;8.358;2023-08-08T13:07:07;21.99;43.85
72277;SHT30;61204;49.980;8.358;2023-08-08T13:09:33;22.00;43.84
72277;SHT30;61204;49.980;8.358;2023-08-08T13:11:58;22.06;44.65
72277;SHT30;61204;49.980;8.358;2023-08-08T13:14:26;22.12;44.00
72277;SHT30;61204;49.980;8.358;2023-08-08T13:16:52;22.75;43.99
72277;SHT30;61204;49.980;8.358;2023-08-08T13:19:20;22.55;44.82
72277;SHT30;61204;49.980;8.358;2023-08-08T13:21:47;22.41;45.72
72277;SHT30;61204;49.980;8.358;2023-08-08T13:24:12;22.21;45.54
72277;SHT30;61204;49.980;8.358;2023-08-08T13:26:39;22.49;45.53
72277;SHT30;61204;49.980;8.358;2023-08-08T13:29:05;22.84;44.46
72277;SHT30;61204;49.980;8.358;2023-08-08T13:31:32;22.25;43.76
72277;SHT30;61204;49.980;8.358;2023-08-08T13:33:58;22.29;44.63
72277;SHT30;61204;49.980;8.358;2023-08-08T13:36:24;21.93;44.44
72277;SHT30;61204;49.980;8.358;2023-08-08T13:38:49;21.78;44.64
72277;SHT30;61204;49.980;8.358;2023-08-08T13:41:15;21.85;45.32
72277;SHT30;61204;49.980;8.358;2023-08-08T13:43:41;22.37;44.58
72277;SHT30;61204;49.980;8.358;2023-08-08T13:46:08;22.34;43.88
72277;SHT30;61204;49.980;8.358;2023-08-08T13:48:36;22.03;43.20
72277;SHT30;61204;49.980;8.358;2023-08-08T13:51:02;22.09;43.86
72277;SHT30;61204;49.980;8.358;2023-08-08T13:53:29;22.25;43.68
72277;SHT30;61204;49.980;8.358;2023-08-08T13:55:55;22.12;44.51
72277;SHT30;61204;49.980;8.358;2023-08-08T13:58:21;22.17;44.76
72277;SHT30;61204;49.980;8.358;2023-08-08T14:00:49;22.31;44.64
72277;SHT30;61204;49.980;8.358;2023-08-08T14:03:15;22.10;44.80
72277;SHT30;61204;49.980;8.358;2023-08-08T14:05:41;22.02;45.13
72277;SHT30;61204;49.980;8.358;2023-08-08T14:08:10;21.85;45.90
72277;SHT30;61204;49.980;8.358;2023-08-08T14:10:36;21.69;45.80
72277;SHT30;61204;49.980;8.358;2023-08-08T14:13:04;21.66;46.35
72277;SHT30;61204;49.980;8.358;2023-08-08T14:15:30;21.44;47.31
72277;SHT30;61204;49.980;8.358;2023-08-08T14:17:56;21.34;47.72
72277;SHT30;61204;49.980;8.358;2023-08-08T14:20:24;21.28;47.55
72277;SHT30;61204;49.980;8.358;2023-08-08T14:22:50;21.21;48.03
72277;SHT30;61204;49.980;8.358;2023-08-08T14:25:16;21.26;48.90
72277;SHT30;61204;49.980;8.358;2023-08-08T14:27:41;21.20;48.97
72277;SHT30;61204;49.980;8.358;2023-08-08T14:30:08;21.17;49.03
72277;SHT30;61204;49.980;8.358;2023-08-08T14:32:35;20.99;49.24
72277;SHT30;61204;49.980;8.358;2023-08-08T14:35:03;20.89;50.30
72277;SHT30;61204;49.980;8.358;2023-08-08T14:37:30;20.72;50.97
72277;SHT30;61204;49.980;8.358;2023-08-08T14:39:59;20.87;51.15
72277;SHT30;61204;49.980;8.358;2023-08-08T14:42:24;20.78;51.68
72277;SHT30;61204;49.980;8.358;2023-08-08T14:44:50;20.73;51.69
72277;SHT30;61204;49.980;8.358;2023-08-08T14:47:16;20.69;51.97
72277;SHT30;61204;49.980;8.358;2023-08-08T14:49:41;20.69;52.20
72277;SHT30;61204;49.980;8.358;2023-08-08T14:52:07;20.73;52.53
72277;SHT30;61204;49.980;8.358;2023-08-08T14:54:34;20.78;52.70
72277;SHT30;61204;49.980;8.358;2023-08-08T14:57:00;20.82;52.42
72277;SHT30;61204;49.980;8.358;2023-08-08T14:59:27;20.69;52.24
72277;SHT30;61204;49.980;8.358;2023-08-08T15:01:53;20.58;52.69
72277;SHT30;61204;49.980;8.358;2023-08-08T15:04:21;20.62;53.02
72277;SHT30;61204;49.980;8.358;2023-08-08T15:06:46;20.53;53.27
72277;SHT30;61204;49.980;8.358;2023-08-08T15:09:12;20.47;53.86
72277;SHT30;61204;49.980;8.358;2023-08-08T15:11:38;20.38;53.96
72277;SHT30;61204;49.980;8.358;2023-08-08T15:14:04;20.45;54.12
72277;SHT30;61204;49.980;8.358;2023-08-08T15:16:29;20.47;53.85
72277;SHT30;61204;49.980;8.358;2023-08-08T15:18:55;20.55;53.98
72277;SHT30;61204;49.980;8.358;2023-08-08T15:21:21;20.80;53.88
72277;SHT30;61204;49.980;8.358;2023-08-08T15:23:47;21.06;53.10
72277;SHT30;61204;49.980;8.358;2023-08-08T15:26:15;21.02;53.48
72277;SHT30;61204;49.980;8.358;2023-08-08T15:28:49;21.14;53.50
72277;SHT30;61204;49.980;8.358;2023-08-08T15:31:15;21.17;53.80
72277;SHT30;61204;49.980;8.358;2023-08-08T15:33:41;20.95;53.52
72277;SHT30;61204;49.980;8.358;2023-08-08T15:36:07;21.07;53.90
72277;SHT30;61204;49.980;8.358;2023-08-08T15:38:33;20.90;54.38